createdAt,value
2017-07-28T00:00:37.435Z,66.94
2017-07-28T00:01:37.460Z,67.03
2017-07-28T00:02:37.482Z,67.13
2017-07-28T00:03:37.507Z,67.13
2017-07-28T00:04:37.529Z,67.03
2017-07-28T00:05:37.550Z,67.13
2017-07-28T00:06:37.258Z,66.55
2017-07-28T00:07:37.283Z,67
2017-07-28T00:08:37.824Z,67.19
2017-07-28T00:09:37.654Z,67.32
2017-07-28T00:10:37.665Z,67.19
2017-07-28T00:11:37.692Z,66.71
2017-07-28T00:12:37.710Z,67
2017-07-28T00:13:37.738Z,67.22
2017-07-28T00:14:37.759Z,67.03
2017-07-28T00:15:37.779Z,67
2017-07-28T00:16:37.822Z,67.42
2017-07-28T00:17:37.832Z,67.19
2017-07-28T00:18:37.850Z,67.19
2017-07-28T00:19:37.876Z,67.38
2017-07-28T00:20:37.895Z,67.1
2017-07-28T00:21:37.923Z,67.29
2017-07-28T00:22:37.950Z,67.1
2017-07-28T00:23:37.964Z,66.91
2017-07-28T00:24:37.987Z,67.1
2017-07-28T00:25:38.013Z,66.71
2017-07-28T00:26:38.035Z,66.91
2017-07-28T00:27:38.054Z,67.19
2017-07-28T00:28:38.077Z,67.29
2017-07-28T00:29:38.107Z,67.1
2017-07-28T00:30:38.124Z,67
2017-07-28T00:31:38.148Z,67
2017-07-28T00:32:38.171Z,66.61
2017-07-28T00:33:38.192Z,66.52
2017-07-28T00:34:38.214Z,66.52
2017-07-28T00:35:38.242Z,67
2017-07-28T00:36:38.264Z,67
2017-07-28T00:37:38.293Z,66.91
2017-07-28T00:38:38.306Z,66.81
2017-07-28T00:39:38.329Z,67
2017-07-28T00:40:38.355Z,67
2017-07-28T00:41:38.378Z,66.52
2017-07-28T00:42:38.398Z,66.81
2017-07-28T00:43:38.419Z,66.71
2017-07-28T00:44:38.443Z,66.91
2017-07-28T00:45:38.456Z,67
2017-07-28T00:46:38.481Z,67
2017-07-28T00:47:38.506Z,67
2017-07-28T00:48:38.524Z,67
2017-07-28T00:49:38.552Z,67.19
2017-07-28T00:50:38.573Z,66.52
2017-07-28T00:51:38.612Z,66.81
2017-07-28T00:52:38.618Z,66.91
2017-07-28T00:53:38.734Z,66.52
2017-07-28T00:54:38.666Z,67.19
2017-07-28T00:55:38.690Z,66.61
2017-07-28T00:56:38.397Z,66.81
2017-07-28T00:57:38.730Z,67
2017-07-28T00:58:38.759Z,67.29
2017-07-28T00:59:38.782Z,67.29
2017-07-28T01:00:38.495Z,66.91
2017-07-28T01:01:38.824Z,67.38
2017-07-28T01:02:38.845Z,66.81
2017-07-28T01:03:38.868Z,67.19
2017-07-28T01:04:38.894Z,67.68
2017-07-28T01:05:38.915Z,67.58
2017-07-28T01:06:38.941Z,67.19
2017-07-28T01:07:38.965Z,67.29
2017-07-28T01:08:38.673Z,67.29
2017-07-28T01:09:39.030Z,67.29
2017-07-28T01:10:39.028Z,67.29
2017-07-28T01:11:39.056Z,66.91
2017-07-28T01:12:38.762Z,67.19
2017-07-28T01:13:39.099Z,67.25
2017-07-28T01:14:38.801Z,67.16
2017-07-28T01:15:39.231Z,67
2017-07-28T01:16:39.177Z,66.97
2017-07-28T01:17:39.185Z,67.19
2017-07-28T01:18:39.206Z,67.29
2017-07-28T01:19:39.234Z,67.38
2017-07-28T01:20:39.326Z,67.38
2017-07-28T01:21:38.964Z,67.38
2017-07-28T01:22:39.296Z,67.58
2017-07-28T01:23:39.005Z,67.16
2017-07-28T01:24:39.351Z,67.68
2017-07-28T01:25:39.369Z,67.54
2017-07-28T01:26:39.392Z,67.74
2017-07-28T01:27:39.412Z,67.64
2017-07-28T01:28:39.439Z,67.45
2017-07-28T01:29:39.464Z,67.64
2017-07-28T01:30:39.162Z,67.74
2017-07-28T01:31:39.507Z,67.16
2017-07-28T01:32:39.525Z,67.93
2017-07-28T01:33:39.553Z,67.83
2017-07-28T01:34:39.568Z,67.35
2017-07-28T01:35:39.603Z,67.54
2017-07-28T01:36:39.688Z,67.54
2017-07-28T01:37:39.634Z,67.35
2017-07-28T01:38:39.663Z,67.74
2017-07-28T01:39:39.364Z,67.68
2017-07-28T01:40:39.393Z,67.35
2017-07-28T01:41:39.731Z,67.64
2017-07-28T01:42:39.750Z,67.74
2017-07-28T01:43:39.774Z,68.7
2017-07-28T01:44:39.794Z,68.51
2017-07-28T01:45:39.847Z,67.64
2017-07-28T01:46:39.964Z,67.83
2017-07-28T01:47:39.957Z,68.41
2017-07-28T01:48:39.572Z,68.31
2017-07-28T01:49:39.912Z,68.41
2017-07-28T01:50:39.928Z,68.21
2017-07-28T01:51:39.642Z,68.41
2017-07-28T01:52:39.980Z,68.31
2017-07-28T01:53:39.997Z,68.21
2017-07-28T01:54:40.127Z,67.93
2017-07-28T01:55:40.044Z,68.6
2017-07-28T01:56:40.069Z,68.51
2017-07-28T01:57:40.088Z,68.21
2017-07-28T01:58:40.113Z,68.51
2017-07-28T01:59:40.133Z,68.31
2017-07-28T02:00:40.158Z,68.7
2017-07-28T02:01:40.184Z,68.21
2017-07-28T02:02:40.213Z,68.98
2017-07-28T02:03:40.223Z,68.79
2017-07-28T02:04:39.938Z,68.02
2017-07-28T02:05:40.269Z,68.51
2017-07-28T02:06:40.288Z,68.51
2017-07-28T02:07:40.313Z,68.21
2017-07-28T02:08:40.334Z,68.12
2017-07-28T02:09:40.364Z,68.12
2017-07-28T02:10:40.378Z,68.12
2017-07-28T02:11:40.407Z,68.51
2017-07-28T02:12:40.427Z,68.89
2017-07-28T02:13:40.451Z,68.41
2017-07-28T02:14:40.469Z,68.51
2017-07-28T02:15:40.497Z,68.7
2017-07-28T02:16:40.525Z,68.31
2017-07-28T02:17:40.227Z,68.6
2017-07-28T02:18:40.564Z,68.51
2017-07-28T02:19:40.582Z,68.6
2017-07-28T02:20:40.604Z,68.89
2017-07-28T02:21:40.627Z,68.7
2017-07-28T02:22:40.721Z,68.79
2017-07-28T02:23:40.669Z,69.08
2017-07-28T02:24:40.380Z,69.27
2017-07-28T02:25:40.716Z,69.18
2017-07-28T02:26:40.798Z,68.6
2017-07-28T02:27:40.767Z,68.6
2017-07-28T02:28:40.789Z,68.89
2017-07-28T02:29:40.491Z,69.27
2017-07-28T02:30:40.832Z,68.98
2017-07-28T02:31:40.957Z,69.18
2017-07-28T02:32:40.697Z,68.89
2017-07-28T02:33:40.901Z,69.18
2017-07-28T02:34:40.983Z,69.18
2017-07-28T02:35:40.624Z,69.18
2017-07-28T02:36:40.987Z,68.89
2017-07-28T02:37:40.986Z,69.56
2017-07-28T02:38:41.118Z,69.56
2017-07-28T02:39:40.716Z,69.05
2017-07-28T02:40:41.051Z,69.66
2017-07-28T02:41:41.077Z,69.37
2017-07-28T02:42:41.120Z,69.18
2017-07-28T02:43:41.121Z,69.37
2017-07-28T02:44:41.154Z,69.46
2017-07-28T02:45:41.160Z,69.05
2017-07-28T02:46:41.183Z,68.98
2017-07-28T02:47:41.209Z,68.98
2017-07-28T02:48:41.241Z,68.98
2017-07-28T02:49:40.942Z,69.08
2017-07-28T02:50:41.277Z,69.14
2017-07-28T02:51:41.301Z,69.24
2017-07-28T02:52:41.330Z,69.46
2017-07-28T02:53:41.457Z,69.08
2017-07-28T02:54:41.370Z,70.04
2017-07-28T02:55:41.384Z,68.76
2017-07-28T02:56:41.590Z,69.37
2017-07-28T02:57:41.538Z,69.18
2017-07-28T02:58:41.454Z,69.81
2017-07-28T02:59:41.475Z,70.52
2017-07-28T03:00:41.501Z,70.43
2017-07-28T03:01:41.519Z,69.66
2017-07-28T03:02:41.545Z,69.66
2017-07-28T03:03:41.635Z,70.49
2017-07-28T03:04:41.347Z,69.46
2017-07-28T03:05:41.357Z,69.66
2017-07-28T03:06:41.679Z,69.56
2017-07-28T03:07:41.679Z,69.66
2017-07-28T03:08:41.685Z,69.53
2017-07-28T03:09:41.713Z,70.2
2017-07-28T03:10:41.725Z,70.2
2017-07-28T03:11:41.749Z,70.23
2017-07-28T03:12:41.767Z,70.2
2017-07-28T03:13:41.785Z,70.14
2017-07-28T03:14:41.808Z,70.43
2017-07-28T03:15:41.835Z,70.23
2017-07-28T03:16:41.857Z,69.81
2017-07-28T03:17:41.879Z,69.81
2017-07-28T03:18:41.900Z,69.95
2017-07-28T03:19:41.924Z,69.66
2017-07-28T03:20:41.944Z,69.72
2017-07-28T03:21:41.967Z,69.72
2017-07-28T03:22:41.668Z,69.72
2017-07-28T03:23:42.011Z,70.14
2017-07-28T03:24:42.031Z,69.81
2017-07-28T03:25:41.753Z,69.53
2017-07-28T03:26:42.078Z,69.81
2017-07-28T03:27:42.102Z,69.72
2017-07-28T03:28:42.126Z,70.01
2017-07-28T03:29:42.146Z,69.56
2017-07-28T03:30:42.393Z,70.2
2017-07-28T03:31:42.305Z,70.39
2017-07-28T03:32:41.899Z,69.91
2017-07-28T03:33:42.229Z,70.1
2017-07-28T03:34:42.261Z,69.75
2017-07-28T03:35:42.280Z,70.39
2017-07-28T03:36:42.296Z,69.81
2017-07-28T03:37:42.325Z,70.1
2017-07-28T03:38:42.028Z,69.91
2017-07-28T03:39:42.050Z,69.81
2017-07-28T03:40:42.155Z,70.39
2017-07-28T03:41:42.408Z,69.91
2017-07-28T03:42:42.432Z,70.39
2017-07-28T03:43:42.456Z,70.29
2017-07-28T03:44:42.476Z,70.1
2017-07-28T03:45:42.496Z,69.81
2017-07-28T03:46:42.518Z,70.01
2017-07-28T03:47:42.545Z,70.39
2017-07-28T03:48:42.247Z,69.62
2017-07-28T03:49:42.589Z,70.01
2017-07-28T03:50:42.733Z,69.72
2017-07-28T03:51:42.631Z,70.2
2017-07-28T03:52:42.658Z,70.2
2017-07-28T03:53:42.907Z,69.72
2017-07-28T03:54:42.703Z,69.53
2017-07-28T03:55:42.718Z,69.53
2017-07-28T03:56:42.740Z,69.53
2017-07-28T03:57:42.448Z,69.43
2017-07-28T03:58:42.784Z,70.39
2017-07-28T03:59:42.812Z,69.72
2017-07-28T04:00:42.831Z,70.1
2017-07-28T04:01:42.852Z,70.29
2017-07-28T04:02:42.873Z,70.29
2017-07-28T04:03:42.900Z,70.01
2017-07-28T04:04:42.614Z,70.01
2017-07-28T04:05:42.939Z,69.81
2017-07-28T04:06:42.651Z,70.29
2017-07-28T04:07:42.988Z,70.1
2017-07-28T04:08:43.007Z,69.72
2017-07-28T04:09:43.059Z,70.1
2017-07-28T04:10:43.055Z,70.01
2017-07-28T04:11:43.074Z,69.72
2017-07-28T04:12:42.783Z,70.01
2017-07-28T04:13:43.116Z,70.2
2017-07-28T04:14:43.149Z,70.2
2017-07-28T04:15:43.164Z,69.91
2017-07-28T04:16:43.184Z,70.39
2017-07-28T04:17:43.205Z,69.81
2017-07-28T04:18:43.227Z,70.29
2017-07-28T04:19:43.248Z,70.39
2017-07-28T04:20:43.273Z,69.81
2017-07-28T04:21:43.297Z,69.91
2017-07-28T04:22:43.316Z,70.49
2017-07-28T04:23:43.337Z,70.39
2017-07-28T04:24:43.362Z,70.29
2017-07-28T04:25:43.381Z,70.1
2017-07-28T04:26:43.405Z,69.91
2017-07-28T04:27:43.432Z,70.1
2017-07-28T04:28:43.449Z,70.29
2017-07-28T04:29:43.473Z,69.62
2017-07-28T04:30:43.182Z,70.2
2017-07-28T04:31:43.521Z,70.2
2017-07-28T04:32:43.537Z,70.2
2017-07-28T04:33:43.565Z,70.1
2017-07-28T04:34:43.270Z,70.01
2017-07-28T04:35:43.610Z,69.91
2017-07-28T04:36:43.627Z,70.2
2017-07-28T04:37:43.331Z,69.91
2017-07-28T04:38:43.871Z,69.81
2017-07-28T04:39:43.690Z,69.91
2017-07-28T04:40:43.717Z,70.01
2017-07-28T04:41:43.736Z,70.29
2017-07-28T04:42:43.446Z,70.1
2017-07-28T04:43:43.782Z,70.2
2017-07-28T04:44:43.485Z,69.91
2017-07-28T04:45:43.839Z,70.29
2017-07-28T04:46:43.844Z,70.01
2017-07-28T04:47:43.552Z,69.91
2017-07-28T04:48:43.573Z,70.29
2017-07-28T04:49:43.916Z,70.39
2017-07-28T04:50:43.938Z,70.29
2017-07-28T04:51:43.959Z,70.1
2017-07-28T04:52:43.985Z,70.2
2017-07-28T04:53:44.009Z,69.62
2017-07-28T04:54:44.026Z,70.1
2017-07-28T04:55:44.065Z,70.01
2017-07-28T04:56:44.068Z,70.1
2017-07-28T04:57:44.092Z,70.49
2017-07-28T04:58:43.794Z,70.29
2017-07-28T04:59:44.131Z,70.29
2017-07-28T05:00:44.156Z,70.29
2017-07-28T05:01:44.184Z,70.1
2017-07-28T05:02:44.200Z,69.91
2017-07-28T05:03:44.227Z,70.2
2017-07-28T05:04:44.244Z,69.91
2017-07-28T05:05:44.269Z,70.2
2017-07-28T05:06:44.291Z,69.62
2017-07-28T05:07:44.316Z,70.2
2017-07-28T05:08:44.453Z,69.91
2017-07-28T05:09:44.402Z,69.62
2017-07-28T05:10:44.375Z,70.58
2017-07-28T05:11:44.397Z,70.1
2017-07-28T05:12:44.424Z,70.78
2017-07-28T05:13:44.441Z,70.78
2017-07-28T05:14:44.465Z,70.68
2017-07-28T05:15:44.485Z,70.29
2017-07-28T05:16:44.510Z,70.49
2017-07-28T05:17:44.530Z,70.97
2017-07-28T05:18:44.553Z,70.87
2017-07-28T05:19:44.578Z,71.06
2017-07-28T05:20:44.602Z,70.97
2017-07-28T05:21:44.303Z,70.87
2017-07-28T05:22:44.326Z,71.06
2017-07-28T05:23:44.667Z,70.78
2017-07-28T05:24:44.683Z,70.68
2017-07-28T05:25:44.716Z,70.78
2017-07-28T05:26:44.739Z,70.68
2017-07-28T05:27:44.843Z,71.06
2017-07-28T05:28:44.872Z,70.97
2017-07-28T05:29:44.803Z,70.9
2017-07-28T05:30:44.817Z,70.87
2017-07-28T05:31:44.844Z,70.97
2017-07-28T05:32:44.865Z,70.87
2017-07-28T05:33:44.568Z,71
2017-07-28T05:34:44.904Z,70.97
2017-07-28T05:35:44.930Z,70.97
2017-07-28T05:36:44.948Z,71.45
2017-07-28T05:37:44.975Z,71.06
2017-07-28T05:38:44.682Z,71.48
2017-07-28T05:39:45.016Z,71.35
2017-07-28T05:40:45.043Z,71.64
2017-07-28T05:41:45.062Z,71.55
2017-07-28T05:42:45.084Z,71.35
2017-07-28T05:43:45.102Z,71.55
2017-07-28T05:44:45.024Z,71.58
2017-07-28T05:45:44.838Z,71.67
2017-07-28T05:46:45.177Z,71.55
2017-07-28T05:47:45.199Z,71.16
2017-07-28T05:48:44.913Z,71.45
2017-07-28T05:49:45.238Z,71.48
2017-07-28T05:50:45.261Z,71.1
2017-07-28T05:51:45.289Z,71.16
2017-07-28T05:52:45.324Z,71.55
2017-07-28T05:53:45.011Z,71.48
2017-07-28T05:54:45.358Z,71.45
2017-07-28T05:55:45.369Z,71.55
2017-07-28T05:56:45.398Z,72.02
2017-07-28T05:57:45.415Z,71.83
2017-07-28T05:58:45.437Z,71.77
2017-07-28T05:59:45.461Z,71.77
2017-07-28T06:00:45.259Z,72.06
2017-07-28T06:01:45.516Z,71.96
2017-07-28T06:02:45.533Z,71.83
2017-07-28T06:03:45.380Z,71.96
2017-07-28T06:04:45.367Z,71.83
2017-07-28T06:05:45.598Z,71.67
2017-07-28T06:06:45.301Z,72.12
2017-07-28T06:07:45.649Z,71.64
2017-07-28T06:09:00.229Z,71.58
2017-07-28T06:09:45.679Z,71.67
2017-07-28T06:10:45.736Z,71.67
2017-07-28T06:11:45.724Z,71.77
2017-07-28T06:12:45.767Z,71.67
2017-07-28T06:13:45.767Z,71.73
2017-07-28T06:14:45.794Z,71.87
2017-07-28T06:15:45.818Z,71.93
2017-07-28T06:16:45.832Z,71.83
2017-07-28T06:17:45.858Z,71.67
2017-07-28T06:18:46.082Z,71.96
2017-07-28T06:19:45.901Z,71.87
2017-07-28T06:20:45.924Z,71.87
2017-07-28T06:21:45.953Z,71.77
2017-07-28T06:22:45.967Z,71.96
2017-07-28T06:23:45.990Z,71.64
2017-07-28T06:24:46.013Z,71.83
2017-07-28T06:25:46.039Z,71.96
2017-07-28T06:26:46.058Z,71.96
2017-07-28T06:27:46.085Z,71.96
2017-07-28T06:28:46.104Z,71.96
2017-07-28T06:29:46.129Z,71.87
2017-07-28T06:30:45.830Z,72.06
2017-07-28T06:31:45.858Z,71.67
2017-07-28T06:32:46.189Z,71.87
2017-07-28T06:33:45.904Z,72.06
2017-07-28T06:34:46.234Z,71.87
2017-07-28T06:35:46.253Z,71.87
2017-07-28T06:36:46.281Z,71.58
2017-07-28T06:37:45.987Z,71.87
2017-07-28T06:38:46.326Z,72.44
2017-07-28T06:39:46.342Z,72.16
2017-07-28T06:40:46.374Z,72.25
2017-07-28T06:41:46.081Z,72.25
2017-07-28T06:42:46.410Z,72.34
2017-07-28T06:43:46.432Z,72.16
2017-07-28T06:44:46.457Z,72.16
2017-07-28T06:45:46.477Z,72.34
2017-07-28T06:46:46.499Z,72.34
2017-07-28T06:47:46.522Z,72.16
2017-07-28T06:48:46.544Z,72.16
2017-07-28T06:49:46.574Z,72.16
2017-07-28T06:50:46.589Z,72.16
2017-07-28T06:51:46.717Z,71.96
2017-07-28T06:52:46.323Z,71.96
2017-07-28T06:53:46.654Z,72.06
2017-07-28T06:54:46.677Z,71.96
2017-07-28T06:55:46.699Z,71.96
2017-07-28T06:56:46.726Z,72.16
2017-07-28T06:57:46.430Z,71.96
2017-07-28T06:58:46.766Z,72.44
2017-07-28T06:59:46.484Z,72.34
2017-07-28T07:00:46.823Z,72.25
2017-07-28T07:01:46.838Z,71.77
2017-07-28T07:02:46.855Z,72.25
2017-07-28T07:03:46.878Z,72.34
2017-07-28T07:04:46.975Z,72.06
2017-07-28T07:05:46.926Z,71.77
2017-07-28T07:06:46.940Z,71.48
2017-07-28T07:07:46.965Z,71.96
2017-07-28T07:08:46.768Z,71.48
2017-07-28T07:09:47.214Z,71.58
2017-07-28T07:10:47.033Z,71.77
2017-07-28T07:11:47.054Z,71.81
2017-07-28T07:12:47.081Z,71.77
2017-07-28T07:13:47.218Z,71.67
2017-07-28T07:14:47.126Z,71.67
2017-07-28T07:15:47.141Z,71.96
2017-07-28T07:16:47.173Z,71.91
2017-07-28T07:17:46.871Z,71.81
2017-07-28T07:18:47.212Z,71.81
2017-07-28T07:19:46.925Z,71.52
2017-07-28T07:20:47.271Z,71.33
2017-07-28T07:21:47.280Z,71.61
2017-07-28T07:22:46.986Z,71.52
2017-07-28T07:23:47.326Z,71.14
2017-07-28T07:24:47.343Z,71.14
2017-07-28T07:25:47.364Z,71.23
2017-07-28T07:26:47.394Z,70.94
2017-07-28T07:27:47.418Z,70.94
2017-07-28T07:28:47.434Z,71.04
2017-07-28T07:29:47.456Z,70.27
2017-07-28T07:30:47.189Z,70.17
2017-07-28T07:31:47.501Z,70.27
2017-07-28T07:32:47.520Z,70.56
2017-07-28T07:33:47.682Z,71.04
2017-07-28T07:34:47.353Z,70.59
2017-07-28T07:35:47.593Z,70.4
2017-07-28T07:36:47.670Z,70.4
2017-07-28T07:37:47.635Z,70.88
2017-07-28T07:38:47.662Z,70.21
2017-07-28T07:39:47.680Z,70.4
2017-07-28T07:40:47.399Z,70.01
2017-07-28T07:41:47.727Z,70.24
2017-07-28T07:42:47.750Z,70.01
2017-07-28T07:43:47.775Z,69.76
2017-07-28T07:44:47.482Z,69.28
2017-07-28T07:45:47.821Z,69.76
2017-07-28T07:46:47.836Z,70.15
2017-07-28T07:47:47.978Z,69.28
2017-07-28T07:48:47.678Z,69.18
2017-07-28T07:49:48.131Z,69.47
2017-07-28T07:50:48.147Z,68.9
2017-07-28T07:51:47.960Z,68.51
2017-07-28T07:52:47.733Z,68.06
2017-07-28T07:53:48.049Z,68.8
2017-07-28T07:54:48.218Z,68.35
2017-07-28T07:55:48.040Z,68.54
2017-07-28T07:56:48.062Z,68.54
2017-07-28T07:57:48.087Z,68.06
2017-07-28T07:58:48.138Z,67.97
2017-07-28T07:59:48.144Z,67.49
2017-07-28T08:00:48.169Z,67
2017-07-28T08:01:47.858Z,67.19
2017-07-28T08:02:47.940Z,67.52
2017-07-28T08:03:48.221Z,67.23
2017-07-28T08:04:48.247Z,67.13
2017-07-28T08:05:47.986Z,66.46
2017-07-28T08:06:48.286Z,66.36
2017-07-28T08:07:48.318Z,66.55
2017-07-28T08:08:48.337Z,66.78
2017-07-28T08:09:48.362Z,65.78
2017-07-28T08:10:48.378Z,66.01
2017-07-28T08:11:48.404Z,65.24
2017-07-28T08:12:48.423Z,65.33
2017-07-28T08:13:48.129Z,64.76
2017-07-28T08:14:48.157Z,64.95
2017-07-28T08:15:48.493Z,64.86
2017-07-28T08:16:48.528Z,64.56
2017-07-28T08:17:48.546Z,64.02
2017-07-28T08:18:48.561Z,64.5
2017-07-28T08:19:48.282Z,64.31
2017-07-28T08:20:48.610Z,64.59
2017-07-28T08:21:48.315Z,63.92
2017-07-28T08:22:48.655Z,63.34
2017-07-28T08:23:48.675Z,63.24
2017-07-28T08:24:48.701Z,62.96
2017-07-28T08:25:48.410Z,62.51
2017-07-28T08:26:48.750Z,62.22
2017-07-28T08:27:48.768Z,62.6
2017-07-28T08:28:48.797Z,61.83
2017-07-28T08:29:48.824Z,61.54
2017-07-28T08:30:48.852Z,61.35
2017-07-28T08:31:48.868Z,61.35
2017-07-28T08:32:48.888Z,60.68
2017-07-28T08:33:48.914Z,61.09
2017-07-28T08:34:48.932Z,61.09
2017-07-28T08:35:48.962Z,60.99
2017-07-28T08:36:48.980Z,60.99
2017-07-28T08:37:49.001Z,60.71
2017-07-28T08:38:49.029Z,60.51
2017-07-28T08:39:49.049Z,60.16
2017-07-28T08:40:49.074Z,59.96
2017-07-28T08:41:49.323Z,59.86
2017-07-28T08:42:49.128Z,59.67
2017-07-28T08:43:48.828Z,59.28
2017-07-28T08:45:03.740Z,59
2017-07-28T08:45:49.220Z,58.8
2017-07-28T08:46:49.214Z,58.32
2017-07-28T08:47:49.532Z,58.03
2017-07-28T08:48:49.263Z,57.87
2017-07-28T08:49:49.283Z,58.06
2017-07-28T08:50:49.309Z,57.57
2017-07-28T08:51:49.346Z,57.38
2017-07-28T08:52:49.355Z,57.77
2017-07-28T08:53:49.383Z,57.57
2017-07-28T08:54:49.408Z,56.9
2017-07-28T08:55:49.545Z,56.41
2017-07-28T08:56:49.544Z,56.9
2017-07-28T08:57:49.591Z,56.13
2017-07-28T08:58:49.209Z,56.54
2017-07-28T08:59:49.213Z,56.35
2017-07-28T09:00:49.349Z,56.25
2017-07-28T09:01:49.802Z,55.38
2017-07-28T09:02:49.286Z,54.9
2017-07-28T09:03:49.843Z,54.13
2017-07-28T09:04:49.771Z,54.03
2017-07-28T09:05:49.368Z,54.15
2017-07-28T09:06:49.409Z,54.35
2017-07-28T09:07:49.847Z,54.63
2017-07-28T09:08:49.885Z,54.93
2017-07-28T09:09:49.901Z,55.31
2017-07-28T09:10:49.584Z,55.21
2017-07-28T09:11:50.066Z,54.63
2017-07-28T09:12:50.042Z,55.11
2017-07-28T09:13:49.548Z,54.63
2017-07-28T09:14:49.890Z,54.53
2017-07-28T09:15:49.916Z,54.75
2017-07-28T09:16:49.623Z,55.21
2017-07-28T09:17:49.871Z,54.85
2017-07-28T09:18:49.672Z,55.05
2017-07-28T09:19:50.035Z,53.59
2017-07-28T09:20:50.253Z,53.21
2017-07-28T09:21:50.062Z,52.82
2017-07-28T09:22:50.323Z,52.63
2017-07-28T09:23:49.798Z,51.28
2017-07-28T09:24:50.137Z,50.98
2017-07-28T09:25:50.163Z,50.89
2017-07-28T09:26:50.185Z,50.98
2017-07-28T09:27:50.168Z,50.98
2017-07-28T09:28:50.244Z,50.89
2017-07-28T09:29:50.272Z,50.31
2017-07-28T09:30:49.966Z,50.4
2017-07-28T09:31:50.494Z,50.6
2017-07-28T09:32:50.018Z,49.73
2017-07-28T09:33:50.358Z,49.73
2017-07-28T09:34:50.493Z,49.63
2017-07-28T09:35:50.413Z,49.46
2017-07-28T09:36:50.434Z,48.57
2017-07-28T09:37:50.459Z,48.97
2017-07-28T09:38:50.486Z,48.97
2017-07-28T09:39:50.412Z,48.59
2017-07-28T09:40:50.216Z,48.49
2017-07-28T09:41:50.557Z,47.91
2017-07-28T09:42:50.586Z,47.43
2017-07-28T09:43:50.294Z,48.03
2017-07-28T09:44:50.636Z,47.84
2017-07-28T09:45:50.343Z,47.45
2017-07-28T09:46:50.372Z,46.87
2017-07-28T09:47:50.709Z,47.16
2017-07-28T09:48:50.738Z,47.26
2017-07-28T09:49:51.002Z,47.45
2017-07-28T09:50:50.787Z,47.45
2017-07-28T09:51:50.809Z,47.45
2017-07-28T09:52:50.843Z,47.19
2017-07-28T09:53:50.865Z,47.38
2017-07-28T09:54:50.890Z,47.47
2017-07-28T09:55:50.913Z,46.89
2017-07-28T09:56:50.940Z,46.8
2017-07-28T09:57:50.995Z,46.89
2017-07-28T09:58:50.995Z,46.89
2017-07-28T09:59:51.025Z,46.92
2017-07-28T10:00:51.044Z,46.92
2017-07-28T10:01:51.073Z,46.72
2017-07-28T10:02:50.777Z,46.53
2017-07-28T10:03:51.126Z,46.53
2017-07-28T10:04:50.827Z,46.24
2017-07-28T10:05:51.171Z,46.33
2017-07-28T10:06:51.104Z,46.24
2017-07-28T10:07:50.925Z,46.04
2017-07-28T10:08:51.382Z,46.33
2017-07-28T10:09:51.009Z,46.43
2017-07-28T10:10:51.003Z,46.33
2017-07-28T10:11:51.334Z,46.24
2017-07-28T10:12:51.354Z,46.24
2017-07-28T10:13:51.453Z,46.45
2017-07-28T10:14:51.528Z,46.14
2017-07-28T10:15:51.468Z,45.85
2017-07-28T10:16:51.462Z,46.07
2017-07-28T10:17:51.593Z,45.78
2017-07-28T10:18:51.620Z,45.87
2017-07-28T10:19:51.658Z,45.68
2017-07-28T10:20:51.619Z,45.68
2017-07-28T10:21:51.618Z,45.68
2017-07-28T10:22:51.736Z,45.78
2017-07-28T10:23:51.589Z,45.68
2017-07-28T10:24:51.690Z,45.39
2017-07-28T10:25:51.708Z,45.39
2017-07-28T10:26:51.724Z,45.68
2017-07-28T10:27:52.059Z,45.39
2017-07-28T10:28:51.641Z,45.37
2017-07-28T10:29:51.924Z,45.39
2017-07-28T10:30:52.020Z,45.2
2017-07-28T10:31:51.985Z,45
2017-07-28T10:32:51.818Z,44.81
2017-07-28T10:33:52.092Z,44.01
2017-07-28T10:34:51.832Z,43.91
2017-07-28T10:35:51.971Z,43.82
2017-07-28T10:36:51.986Z,44.4
2017-07-28T10:37:51.699Z,44.4
2017-07-28T10:38:52.037Z,44.59
2017-07-28T10:39:52.127Z,44.01
2017-07-28T10:40:51.822Z,44.3
2017-07-28T10:41:52.143Z,44.2
2017-07-28T10:42:52.169Z,43.82
2017-07-28T10:43:51.885Z,43.52
2017-07-28T10:44:51.882Z,44.01
2017-07-28T10:45:52.382Z,44.3
2017-07-28T10:46:52.335Z,43.89
2017-07-28T10:47:51.990Z,43.72
2017-07-28T10:48:52.311Z,43.99
2017-07-28T10:49:52.334Z,44.57
2017-07-28T10:50:52.357Z,44.49
2017-07-28T10:51:52.391Z,44.18
2017-07-28T10:52:52.419Z,43.82
2017-07-28T10:53:52.437Z,43.99
2017-07-28T10:54:52.463Z,43.91
2017-07-28T10:55:52.239Z,43.82
2017-07-28T10:56:52.524Z,43.62
2017-07-28T10:57:52.571Z,43.72
2017-07-28T10:58:52.572Z,43.91
2017-07-28T10:59:52.283Z,43.13
2017-07-28T11:00:52.628Z,43.13
2017-07-28T11:01:52.559Z,43.13
2017-07-28T11:02:52.364Z,43.23
2017-07-28T11:03:52.708Z,43.04
2017-07-28T11:04:52.730Z,43.13
2017-07-28T11:05:52.664Z,43.23
2017-07-28T11:06:52.874Z,43.33
2017-07-28T11:07:53.017Z,43.33
2017-07-28T11:08:53.001Z,43.04
2017-07-28T11:09:53.003Z,42.46
2017-07-28T11:10:53.110Z,42.75
2017-07-28T11:11:52.603Z,42.46
2017-07-28T11:12:52.946Z,42.19
2017-07-28T11:13:52.974Z,41.22
2017-07-28T11:14:53.024Z,39.86
2017-07-28T11:15:52.767Z,40.05
2017-07-28T11:16:53.058Z,40.54
2017-07-28T11:17:53.078Z,40.46
2017-07-28T11:18:53.106Z,40.26
2017-07-28T11:19:53.352Z,39.86
2017-07-28T11:20:52.844Z,39.98
2017-07-28T11:21:52.874Z,40.26
2017-07-28T11:22:52.898Z,40.36
2017-07-28T11:23:52.950Z,39.8
2017-07-28T11:24:53.267Z,39.12
2017-07-28T11:25:53.583Z,37.76
2017-07-28T11:26:53.326Z,38.25
2017-07-28T11:27:53.351Z,38.15
2017-07-28T11:28:53.073Z,37.86
2017-07-28T11:29:53.097Z,38.27
2017-07-28T11:30:53.437Z,37.78
2017-07-28T11:31:53.147Z,38.27
2017-07-28T11:32:53.390Z,38.65
2017-07-28T11:33:53.212Z,38.85
2017-07-28T11:34:53.237Z,38.75
2017-07-28T11:35:53.575Z,38.87
2017-07-28T11:36:53.617Z,38.67
2017-07-28T11:37:53.634Z,38.77
2017-07-28T11:38:53.657Z,38.67
2017-07-28T11:39:53.694Z,38.6
2017-07-28T11:40:53.711Z,38.79
2017-07-28T11:41:53.734Z,38.01
2017-07-28T11:42:53.765Z,37.52
2017-07-28T11:43:53.789Z,37.72
2017-07-28T11:44:53.816Z,37.43
2017-07-28T11:45:53.853Z,37.62
2017-07-28T11:46:53.871Z,37.04
2017-07-28T11:47:53.905Z,37.14
2017-07-28T11:48:53.934Z,36.85
2017-07-28T11:49:53.650Z,37.16
2017-07-28T11:50:53.994Z,36.77
2017-07-28T11:51:54.012Z,36.57
2017-07-28T11:52:54.041Z,36.67
2017-07-28T11:53:54.082Z,35.7
2017-07-28T11:54:54.102Z,35.6
2017-07-28T11:55:54.136Z,35.42
2017-07-28T11:56:54.157Z,35.33
2017-07-28T11:57:54.183Z,35.13
2017-07-28T11:58:54.216Z,34.55
2017-07-28T11:59:54.236Z,35.31
2017-07-28T12:00:54.275Z,35.33
2017-07-28T12:01:54.297Z,35.02
2017-07-28T12:02:54.321Z,34.53
2017-07-28T12:03:54.355Z,34.45
2017-07-28T12:04:54.377Z,34.53
2017-07-28T12:05:54.104Z,34.06
2017-07-28T12:06:54.123Z,34.24
2017-07-28T12:07:54.150Z,34.33
2017-07-28T12:08:54.490Z,35.21
2017-07-28T12:09:54.211Z,35.6
2017-07-28T12:10:54.345Z,35.03
2017-07-28T12:11:54.267Z,35.42
2017-07-28T12:12:54.303Z,35.23
2017-07-28T12:13:54.635Z,35.23
2017-07-28T12:14:54.349Z,35.71
2017-07-28T12:15:54.690Z,35.33
2017-07-28T12:16:54.719Z,34.86
2017-07-28T12:17:54.686Z,34.56
2017-07-28T12:18:54.999Z,33.59
2017-07-28T12:19:54.805Z,32.62
2017-07-28T12:20:54.837Z,32.81
2017-07-28T12:21:54.864Z,32.62
2017-07-28T12:22:54.900Z,32.81
2017-07-28T12:23:54.601Z,33.01
2017-07-28T12:24:54.633Z,33.59
2017-07-28T12:25:55.049Z,33.49
2017-07-28T12:26:55.006Z,33.98
2017-07-28T12:27:54.719Z,33.39
2017-07-28T12:28:55.063Z,32.62
2017-07-28T12:29:55.105Z,32.81
2017-07-28T12:30:55.243Z,33.11
2017-07-28T12:31:55.155Z,33.29
2017-07-28T12:32:55.184Z,33.22
2017-07-28T12:33:55.209Z,33.9
2017-07-28T12:34:55.255Z,34.19
2017-07-28T12:35:55.263Z,34
2017-07-28T12:36:55.298Z,33.41
2017-07-28T12:37:55.324Z,33.62
2017-07-28T12:38:55.593Z,33.43
2017-07-28T12:39:55.383Z,33.43
2017-07-28T12:41:09.986Z,33.43
2017-07-28T12:41:55.541Z,33.34
2017-07-28T12:42:55.543Z,32.47
2017-07-28T12:43:55.571Z,32.37
2017-07-28T12:44:55.538Z,32.96
2017-07-28T12:46:10.129Z,31.9
2017-07-28T12:46:55.632Z,32.68
2017-07-28T12:47:55.617Z,32.68
2017-07-28T12:48:55.646Z,32.48
2017-07-28T12:49:55.674Z,31.99
2017-07-28T12:50:55.409Z,32.19
2017-07-28T12:51:55.415Z,32.39
2017-07-28T12:52:55.766Z,32.4
2017-07-28T12:53:55.799Z,32.21
2017-07-28T12:54:55.518Z,31.43
2017-07-28T12:55:55.849Z,31.52
2017-07-28T12:56:55.878Z,31.74
2017-07-28T12:57:55.606Z,31.35